Time;durP1;ratioP1;P1;durP2;ratioP2;P2;SDS_P1;SDS_P2;PMS_P1;PMS_P2;Temp;Humidity;BMP_temperature;BMP_pressure;BME280_temperature;BME280_humidity;BME280_pressure;Samples;Min_cycle;Max_cycle;Signal;HPM_P1;HPM_P2
2022/04/30 00:01:06;;;;;;;13.13;1.80;;;18.70;80.90;;;;;;5007920;28;20026;-69
2022/04/30 00:04:12;;;;;;;4.57;1.60;;;18.70;80.90;;;;;;5008365;28;20406;-71
2022/04/30 00:07:18;;;;;;;6.97;2.42;;;18.70;81.00;;;;;;5007576;28;20021;-69
2022/04/30 00:10:24;;;;;;;13.88;2.78;;;18.70;81.00;;;;;;5008300;28;20029;-71
2022/04/30 00:13:30;;;;;;;4.72;2.58;;;18.70;81.10;;;;;;5008454;28;20077;-66
2022/04/30 00:15:59;;;;;;;5.90;2.03;;;18.70;81.20;;;;;;5007021;28;20037;-70
2022/04/30 00:18:26;;;;;;;5.20;1.88;;;18.70;81.20;;;;;;5007395;28;20072;-68
2022/04/30 00:20:52;;;;;;;27.45;2.17;;;18.70;81.20;;;;;;5008205;28;20049;-72
2022/04/30 00:23:21;;;;;;;9.90;2.30;;;18.70;81.30;;;;;;5007984;28;20022;-73
2022/04/30 00:25:55;;;;;;;5.75;2.13;;;18.70;81.40;;;;;;5008007;28;20545;-71
2022/04/30 00:28:25;;;;;;;6.00;2.42;;;18.70;81.50;;;;;;5006988;28;20453;-69
2022/04/30 00:30:52;;;;;;;7.63;3.03;;;18.70;81.60;;;;;;5009181;28;20034;-72
2022/04/30 00:33:18;;;;;;;8.23;2.30;;;18.70;81.60;;;;;;5006364;28;20057;-72
2022/04/30 00:35:45;;;;;;;5.75;1.65;;;18.70;81.60;;;;;;5008002;28;20080;-71
2022/04/30 00:38:11;;;;;;;4.15;2.10;;;18.60;81.60;;;;;;5007889;28;20087;-68
2022/04/30 00:40:38;;;;;;;13.75;2.78;;;18.60;81.60;;;;;;5006878;28;20026;-70
2022/04/30 00:43:04;;;;;;;9.90;1.92;;;18.60;81.60;;;;;;5007091;28;20041;-69
2022/04/30 00:45:31;;;;;;;6.00;1.60;;;18.60;81.80;;;;;;5007631;28;20093;-74
2022/04/30 00:47:58;;;;;;;5.20;1.95;;;18.70;81.90;;;;;;5008023;28;20054;-69
2022/04/30 00:50:28;;;;;;;6.95;2.03;;;18.60;82.00;;;;;;5006065;28;20157;-71
2022/04/30 00:52:58;;;;;;;4.28;1.95;;;18.60;82.10;;;;;;5007913;28;20022;-73
2022/04/30 00:55:28;;;;;;;10.27;2.67;;;18.70;82.30;;;;;;5007079;28;20113;-67
2022/04/30 00:57:58;;;;;;;6.53;1.60;;;18.70;82.30;;;;;;5006790;28;20713;-71
2022/04/30 01:00:27;;;;;;;10.35;2.30;;;18.70;82.40;;;;;;5008210;28;20124;-72
2022/04/30 01:02:53;;;;;;;7.80;1.58;;;18.70;82.40;;;;;;5006615;28;20043;-67
2022/04/30 01:05:19;;;;;;;5.85;1.85;;;18.70;82.60;;;;;;5007534;28;20026;-68
2022/04/30 01:07:48;;;;;;;6.75;2.05;;;18.70;82.60;;;;;;5006817;28;20028;-70
2022/04/30 01:10:14;;;;;;;4.32;1.80;;;18.60;82.60;;;;;;5007730;28;20060;-72
2022/04/30 01:12:41;;;;;;;4.20;2.35;;;18.70;82.70;;;;;;4988961;28;20030;-72
2022/04/30 01:15:08;;;;;;;12.77;3.30;;;18.60;82.40;;;;;;5006816;28;20010;-69
2022/04/30 01:17:37;;;;;;;7.63;2.65;;;18.70;82.50;;;;;;5006726;28;20485;-74
2022/04/30 01:20:04;;;;;;;6.95;2.88;;;18.70;82.50;;;;;;5006242;28;20061;-73
2022/04/30 01:22:39;;;;;;;3.05;2.28;;;18.70;82.50;;;;;;5007959;28;20022;-75
2022/04/30 01:25:06;;;;;;;12.18;3.10;;;18.70;82.50;;;;;;5006955;28;20117;-76
2022/04/30 01:27:35;;;;;;;6.75;4.03;;;18.60;82.40;;;;;;5007853;28;20029;-75
2022/04/30 01:30:03;;;;;;;6.20;3.38;;;18.70;82.50;;;;;;5006772;28;20010;-76
2022/04/30 01:38:05;;;;;;;7.70;4.18;;;18.70;82.40;;;;;;5006340;28;20077;-75
2022/04/30 01:40:32;;;;;;;6.97;4.40;;;18.60;82.20;;;;;;5007146;28;20481;-74
2022/04/30 01:43:01;;;;;;;10.57;4.80;;;18.60;82.20;;;;;;5006422;28;20021;-74
2022/04/30 01:45:29;;;;;;;11.65;5.00;;;18.60;82.10;;;;;;5007409;28;20026;-74
2022/04/30 01:47:59;;;;;;;7.25;4.88;;;18.60;82.00;;;;;;5007098;28;20018;-74
2022/04/30 01:50:26;;;;;;;11.82;5.45;;;18.60;81.80;;;;;;5005662;28;20050;-72
2022/04/30 01:52:53;;;;;;;14.45;6.68;;;18.50;81.50;;;;;;5005457;28;20162;-76
2022/04/30 01:55:19;;;;;;;18.95;5.68;;;18.50;81.50;;;;;;5007909;28;20014;-76
2022/04/30 01:57:46;;;;;;;26.20;6.45;;;18.50;82.10;;;;;;5011231;28;20033;-74
2022/04/30 02:00:14;;;;;;;11.63;5.75;;;18.50;81.70;;;;;;5008794;28;20045;-76
2022/04/30 02:02:45;;;;;;;11.63;6.50;;;18.40;81.60;;;;;;5010684;28;20074;-75
2022/04/30 02:05:13;;;;;;;8.32;5.22;;;18.50;81.40;;;;;;5010576;28;20022;-72
2022/04/30 02:07:49;;;;;;;9.55;4.88;;;18.40;81.10;;;;;;5010428;28;20528;-76
2022/04/30 02:10:20;;;;;;;7.47;5.47;;;18.40;80.80;;;;;;5010731;28;20045;-73
2022/04/30 02:12:48;;;;;;;11.38;7.10;;;18.30;80.60;;;;;;5009833;28;20084;-75
2022/04/30 02:15:16;;;;;;;24.80;13.70;;;18.40;80.60;;;;;;5009829;28;20022;-74
2022/04/30 02:17:46;;;;;;;30.60;20.52;;;18.30;80.40;;;;;;5008737;28;20387;-73
2022/04/30 02:20:33;;;;;;;17.75;13.55;;;18.30;80.60;;;;;;5007916;28;20053;-68
2022/04/30 02:23:09;;;;;;;13.52;8.77;;;18.20;80.30;;;;;;5009984;28;20076;-69
2022/04/30 02:25:37;;;;;;;8.18;6.45;;;18.30;80.00;;;;;;5007522;28;20555;-72
2022/04/30 02:28:05;;;;;;;8.23;6.75;;;18.20;79.70;;;;;;5010716;28;20010;-73
2022/04/30 02:30:36;;;;;;;8.68;6.03;;;18.20;79.50;;;;;;5009263;28;20022;-73
2022/04/30 02:33:10;;;;;;;14.55;6.38;;;18.20;79.40;;;;;;5010299;28;20010;-73
2022/04/30 02:35:40;;;;;;;10.48;5.88;;;18.20;79.30;;;;;;5009198;28;20024;-74
2022/04/30 02:38:11;;;;;;;9.32;5.43;;;18.10;79.30;;;;;;5009588;28;20038;-72
2022/04/30 02:40:39;;;;;;;8.77;5.50;;;18.10;79.20;;;;;;5009824;28;20167;-74
2022/04/30 02:43:08;;;;;;;9.45;6.50;;;18.10;79.20;;;;;;5009101;28;20823;-73
2022/04/30 02:45:37;;;;;;;11.55;6.03;;;18.10;79.30;;;;;;5009228;28;20137;-73
2022/04/30 02:48:06;;;;;;;11.15;6.32;;;18.10;79.40;;;;;;5008929;28;20021;-74
2022/04/30 02:50:34;;;;;;;5.65;5.13;;;18.10;79.50;;;;;;5009835;28;20022;-72
2022/04/30 02:53:01;;;;;;;7.35;6.28;;;18.00;79.60;;;;;;5010394;28;20021;-73
2022/04/30 02:55:27;;;;;;;8.50;5.75;;;18.00;79.70;;;;;;5008111;28;20037;-73
2022/04/30 03:00:46;;;;;;;20.90;7.57;;;18.00;79.70;;;;;;5009500;28;20028;-74
2022/04/30 03:03:15;;;;;;;17.58;10.43;;;18.00;79.90;;;;;;5009581;28;20030;-71
2022/04/30 03:05:43;;;;;;;20.95;14.82;;;18.00;80.00;;;;;;5008664;28;20760;-72
2022/04/30 03:08:13;;;;;;;16.25;13.43;;;18.00;80.10;;;;;;5007788;28;20155;-73
2022/04/30 03:10:42;;;;;;;14.40;9.90;;;18.00;80.10;;;;;;5007453;28;20032;-71
2022/04/30 03:13:09;;;;;;;13.65;8.45;;;18.00;80.10;;;;;;5007426;28;20049;-67
2022/04/30 03:15:37;;;;;;;14.70;7.13;;;18.00;80.10;;;;;;5008205;28;20021;-72
2022/04/30 03:23:37;;;;;;;11.40;6.35;;;18.00;80.10;;;;;;5008239;28;20133;-73
2022/04/30 03:26:05;;;;;;;14.80;8.02;;;18.00;80.00;;;;;;5004218;28;20021;-71
2022/04/30 03:28:32;;;;;;;11.75;8.75;;;18.00;80.00;;;;;;5008040;28;20057;-74
2022/04/30 03:31:00;;;;;;;17.80;10.70;;;18.00;80.10;;;;;;5006640;28;20056;-73
2022/04/30 03:33:27;;;;;;;14.70;10.07;;;17.90;80.20;;;;;;5008675;28;20065;-73
2022/04/30 03:35:54;;;;;;;14.82;10.77;;;17.90;80.20;;;;;;5006693;28;20088;-74
2022/04/30 03:38:21;;;;;;;15.63;11.38;;;17.90;80.20;;;;;;5007128;28;20010;-73
2022/04/30 03:40:47;;;;;;;21.55;10.90;;;17.90;80.20;;;;;;5008687;28;20481;-73
2022/04/30 03:43:16;;;;;;;36.30;12.50;;;17.90;80.30;;;;;;5007905;28;20032;-73
2022/04/30 03:45:42;;;;;;;57.72;18.98;;;17.90;80.40;;;;;;5008259;28;20262;-73
2022/04/30 03:48:53;;;;;;;32.50;21.55;;;17.90;81.30;;;;;;5007791;28;20026;-69
2022/04/30 03:51:59;;;;;;;28.25;21.25;;;17.90;81.70;;;;;;5008566;28;20007;-74
2022/04/30 03:54:53;;;;;;;22.27;17.95;;;17.90;81.10;;;;;;5006765;28;20383;-69
2022/04/30 03:57:20;;;;;;;17.90;11.98;;;17.90;80.60;;;;;;4986921;28;20041;-72
2022/04/30 03:59:46;;;;;;;16.92;9.25;;;17.90;80.30;;;;;;5004996;28;20026;-69
2022/04/30 04:02:14;;;;;;;8.73;6.13;;;17.80;79.90;;;;;;5006591;28;20025;-71
2022/04/30 04:04:40;;;;;;;10.88;6.28;;;17.80;79.50;;;;;;5005555;28;20017;-73
2022/04/30 04:07:07;;;;;;;13.60;5.10;;;17.80;79.30;;;;;;5006737;28;20022;-73
2022/04/30 04:09:33;;;;;;;9.65;4.70;;;17.80;79.20;;;;;;5007169;28;20021;-72
2022/04/30 04:12:00;;;;;;;8.85;4.22;;;17.70;79.10;;;;;;5007356;28;20072;-68
2022/04/30 04:19:56;;;;;;;9.80;3.37;;;17.60;80.40;;;;;;5006344;28;20057;-72
2022/04/30 04:22:22;;;;;;;8.65;4.13;;;17.60;80.30;;;;;;5005381;28;20105;-71
2022/04/30 04:27:34;;;;;;;12.10;5.05;;;17.60;79.90;;;;;;5006155;28;20068;-73
2022/04/30 04:30:00;;;;;;;10.77;5.10;;;17.60;79.70;;;;;;5007707;28;20056;-68
2022/04/30 04:32:27;;;;;;;10.90;4.53;;;17.60;79.70;;;;;;5007572;28;20096;-74
2022/04/30 04:34:53;;;;;;;9.88;4.85;;;17.50;80.20;;;;;;5005792;28;20503;-73
2022/04/30 04:37:20;;;;;;;8.45;3.88;;;17.60;79.70;;;;;;5006396;28;20088;-72
2022/04/30 04:39:46;;;;;;;8.30;4.93;;;17.60;79.90;;;;;;4986835;28;20049;-74
2022/04/30 04:42:13;;;;;;;8.00;4.55;;;17.60;80.00;;;;;;5005808;28;20085;-69
2022/04/30 04:44:39;;;;;;;9.20;4.25;;;17.60;80.10;;;;;;5005198;28;20026;-72
2022/04/30 04:47:06;;;;;;;8.23;4.25;;;17.60;80.00;;;;;;5006783;28;20018;-74
2022/04/30 04:49:33;;;;;;;7.78;4.45;;;17.60;80.00;;;;;;5005772;28;20018;-74
2022/04/30 04:52:01;;;;;;;9.00;5.13;;;17.50;79.80;;;;;;5005738;28;20104;-72
2022/04/30 04:54:28;;;;;;;7.32;4.38;;;17.50;79.80;;;;;;5006562;28;20025;-72
2022/04/30 04:56:54;;;;;;;5.40;4.07;;;17.50;79.60;;;;;;5003685;28;20033;-75
2022/04/30 04:59:21;;;;;;;13.23;4.40;;;17.50;79.60;;;;;;5007754;28;20045;-69
2022/04/30 05:01:48;;;;;;;11.32;3.92;;;17.50;79.50;;;;;;5006484;28;20040;-71
2022/04/30 05:04:15;;;;;;;24.33;16.27;;;17.50;79.50;;;;;;5007073;28;20068;-73
2022/04/30 05:06:42;;;;;;;50.40;38.20;;;17.50;79.40;;;;;;5007132;28;20422;-77
2022/04/30 05:09:08;;;;;;;57.85;46.47;;;17.50;79.20;;;;;;5005703;28;20018;-72
2022/04/30 05:11:35;;;;;;;36.15;28.35;;;17.50;79.00;;;;;;5006521;28;20101;-69
2022/04/30 05:14:01;;;;;;;22.50;15.20;;;17.40;78.70;;;;;;5004952;28;20097;-73
2022/04/30 05:16:28;;;;;;;13.98;8.43;;;17.40;78.50;;;;;;5006090;28;20042;-73
2022/04/30 05:18:54;;;;;;;11.45;5.43;;;17.40;78.30;;;;;;5004384;28;20058;-66
2022/04/30 05:21:21;;;;;;;10.43;3.97;;;17.40;78.10;;;;;;5005791;28;20449;-69
2022/04/30 05:23:48;;;;;;;11.82;3.03;;;17.40;77.90;;;;;;5004688;28;20025;-68
2022/04/30 05:26:14;;;;;;;4.68;3.05;;;17.40;77.90;;;;;;5006314;28;20068;-72
2022/04/30 05:28:40;;;;;;;2.33;1.83;;;17.30;77.80;;;;;;5005856;28;20044;-74
2022/04/30 05:31:07;;;;;;;7.43;2.08;;;17.30;77.70;;;;;;5006412;28;20014;-69
2022/04/30 05:33:37;;;;;;;9.18;2.85;;;17.30;77.60;;;;;;5007402;28;20105;-75
2022/04/30 05:36:04;;;;;;;6.65;2.50;;;17.30;77.50;;;;;;5005351;28;20026;-73
2022/04/30 05:38:31;;;;;;;16.48;2.85;;;17.30;77.60;;;;;;5007469;28;20105;-75
2022/04/30 05:40:57;;;;;;;11.38;2.40;;;17.30;77.80;;;;;;5001375;28;20018;-71
2022/04/30 05:43:23;;;;;;;7.32;2.63;;;17.30;77.70;;;;;;5005282;28;20025;-73
2022/04/30 05:45:50;;;;;;;8.80;2.10;;;17.30;77.60;;;;;;5006437;28;20049;-73
2022/04/30 05:48:16;;;;;;;5.40;2.22;;;17.30;77.40;;;;;;5004741;28;20018;-75
2022/04/30 05:50:43;;;;;;;14.73;2.95;;;17.30;77.30;;;;;;5006211;28;20018;-72
2022/04/30 05:53:09;;;;;;;6.60;2.35;;;17.20;77.30;;;;;;5004688;28;20022;-77
2022/04/30 05:55:36;;;;;;;4.60;2.10;;;17.20;77.40;;;;;;5005159;28;20014;-71
2022/04/30 05:58:02;;;;;;;7.20;3.85;;;17.30;77.60;;;;;;5002267;28;20452;-72
2022/04/30 06:00:29;;;;;;;3.90;2.90;;;17.20;77.70;;;;;;4988143;28;21512;-76
2022/04/30 06:02:55;;;;;;;54.88;6.95;;;17.20;77.90;;;;;;5003976;28;20079;-73
2022/04/30 06:05:23;;;;;;;41.65;7.57;;;17.20;78.10;;;;;;5004592;28;20018;-74
2022/04/30 06:07:51;;;;;;;43.45;7.22;;;17.30;78.10;;;;;;5004933;28;20030;-74
2022/04/30 06:10:18;;;;;;;31.23;8.02;;;17.20;78.40;;;;;;5003793;28;20022;-69
2022/04/30 06:12:44;;;;;;;24.13;10.55;;;17.20;78.70;;;;;;5005137;28;20030;-74
2022/04/30 06:15:11;;;;;;;22.15;8.02;;;17.30;78.90;;;;;;5003811;28;20037;-73
2022/04/30 06:17:37;;;;;;;21.00;11.05;;;17.20;79.00;;;;;;5005047;28;20045;-75
2022/04/30 06:20:04;;;;;;;22.85;10.25;;;17.20;80.00;;;;;;5004077;28;20046;-73
2022/04/30 06:22:31;;;;;;;33.00;10.05;;;17.20;80.50;;;;;;5005492;28;20050;-73
2022/04/30 06:24:57;;;;;;;18.42;9.45;;;17.20;81.10;;;;;;5002761;28;20366;-66
2022/04/30 06:27:24;;;;;;;23.75;9.75;;;17.20;81.40;;;;;;5003795;28;20025;-67
2022/04/30 06:30:02;;;;;;;22.42;8.80;;;17.20;81.50;;;;;;5005184;28;20022;-70
2022/04/30 06:32:29;;;;;;;17.60;7.32;;;17.30;81.80;;;;;;4985920;28;20039;-68
2022/04/30 06:34:55;;;;;;;13.10;7.43;;;17.30;81.80;;;;;;5005106;28;20030;-75
2022/04/30 06:37:22;;;;;;;11.98;6.95;;;17.20;82.20;;;;;;5004425;28;20033;-75
2022/04/30 06:39:48;;;;;;;17.95;12.00;;;17.20;82.40;;;;;;5004190;28;20018;-76
2022/04/30 06:42:15;;;;;;;27.40;19.33;;;17.30;82.60;;;;;;4988491;28;20388;-80
2022/04/30 06:44:41;;;;;;;23.65;18.52;;;17.30;82.90;;;;;;5009839;28;20014;-73
2022/04/30 06:47:08;;;;;;;16.38;12.65;;;17.30;83.10;;;;;;4991213;28;20014;-84
2022/04/30 06:49:35;;;;;;;12.70;9.57;;;17.30;83.30;;;;;;5003244;28;20113;-78
2022/04/30 06:52:01;;;;;;;19.02;8.50;;;17.30;83.40;;;;;;5004968;28;20054;-71
2022/04/30 06:57:16;;;;;;;23.27;15.80;;;17.30;83.40;;;;;;5006258;28;20111;-77
2022/04/30 06:59:45;;;;;;;44.30;18.17;;;17.40;83.60;;;;;;5009989;28;20080;-76
2022/04/30 07:02:13;;;;;;;27.55;14.73;;;17.40;84.10;;;;;;5009422;28;20006;-80
2022/04/30 07:04:42;;;;;;;25.75;13.85;;;17.40;84.20;;;;;;5010342;28;20038;-74
2022/04/30 07:07:10;;;;;;;17.80;11.18;;;17.40;84.40;;;;;;5008453;28;20101;-71
2022/04/30 07:09:37;;;;;;;15.70;10.88;;;17.50;84.60;;;;;;5009391;28;20040;-79
2022/04/30 07:12:06;;;;;;;14.60;10.30;;;17.50;84.70;;;;;;5007806;28;20091;-79
2022/04/30 07:14:37;;;;;;;14.77;9.15;;;17.50;84.60;;;;;;5009386;28;20021;-76
2022/04/30 07:17:06;;;;;;;44.63;15.18;;;17.50;84.60;;;;;;5007365;28;20061;-74
2022/04/30 07:19:33;;;;;;;21.55;10.70;;;17.60;84.80;;;;;;5009146;28;20037;-77
2022/04/30 07:22:00;;;;;;;26.27;10.82;;;17.60;84.80;;;;;;5009553;28;20549;-72
2022/04/30 07:24:27;;;;;;;12.68;8.60;;;17.60;84.90;;;;;;5008684;28;20018;-72
2022/04/30 07:26:54;;;;;;;12.07;8.55;;;17.60;84.80;;;;;;5009253;28;20072;-71
2022/04/30 07:29:20;;;;;;;13.68;8.73;;;17.70;84.90;;;;;;5007326;28;20556;-72
2022/04/30 07:31:47;;;;;;;19.27;9.30;;;17.70;84.80;;;;;;5008796;28;20029;-73
2022/04/30 07:34:13;;;;;;;12.65;9.45;;;17.70;84.80;;;;;;5008163;28;20116;-71
2022/04/30 07:36:40;;;;;;;14.20;9.85;;;17.80;84.90;;;;;;5008706;28;20034;-76
2022/04/30 07:39:07;;;;;;;19.42;9.15;;;17.80;85.00;;;;;;5008998;28;20018;-72
2022/04/30 07:41:35;;;;;;;10.52;7.97;;;17.80;85.10;;;;;;4991449;28;20025;-71
2022/04/30 07:44:02;;;;;;;10.90;7.45;;;17.90;85.50;;;;;;5009112;28;20025;-71
2022/04/30 07:46:28;;;;;;;12.45;7.63;;;17.90;85.50;;;;;;5007908;28;20659;-72
2022/04/30 07:48:55;;;;;;;9.30;6.53;;;18.00;85.70;;;;;;5007989;28;20485;-71
2022/04/30 07:52:03;;;;;;;7.50;5.72;;;18.00;85.90;;;;;;5006044;28;20017;-72
2022/04/30 07:54:10;;;;;;;9.45;4.35;;;18.10;85.90;;;;;;5002160;28;20125;-72
2022/04/30 07:56:37;;;;;;;9.20;5.38;;;18.10;85.90;;;;;;5008711;28;20030;-71
2022/04/30 07:59:03;;;;;;;10.48;3.88;;;18.10;86.00;;;;;;5007449;28;20041;-70
2022/04/30 08:01:30;;;;;;;11.45;4.45;;;18.20;86.00;;;;;;5008829;28;20044;-69
2022/04/30 08:03:56;;;;;;;13.07;4.40;;;18.20;86.00;;;;;;5007381;28;20092;-68
2022/04/30 08:06:23;;;;;;;16.17;4.20;;;18.20;85.80;;;;;;5008999;28;20049;-69
2022/04/30 08:08:49;;;;;;;8.80;4.50;;;18.20;85.60;;;;;;5008037;28;20052;-71
2022/04/30 08:11:16;;;;;;;22.38;5.68;;;18.30;85.70;;;;;;5008163;28;20030;-71
2022/04/30 08:13:42;;;;;;;13.70;4.30;;;18.30;85.70;;;;;;5007720;28;20512;-73
2022/04/30 08:16:10;;;;;;;12.55;5.18;;;18.40;85.40;;;;;;5007315;28;20046;-75
2022/04/30 08:18:38;;;;;;;10.77;4.75;;;18.40;85.10;;;;;;5008413;28;20124;-72
2022/04/30 08:21:06;;;;;;;16.13;4.75;;;18.40;84.80;;;;;;5007412;28;20049;-74
2022/04/30 08:23:33;;;;;;;73.35;52.92;;;18.50;84.40;;;;;;5008104;28;20038;-73
2022/04/30 08:26:01;;;;;;;25.13;15.50;;;18.50;84.10;;;;;;5007072;28;20010;-74
2022/04/30 08:28:28;;;;;;;22.35;11.30;;;18.50;83.50;;;;;;5007102;28;20055;-72
2022/04/30 08:30:54;;;;;;;17.48;8.15;;;18.60;83.40;;;;;;5008436;28;20473;-70
2022/04/30 08:33:21;;;;;;;14.73;6.47;;;18.70;83.10;;;;;;5007381;28;20020;-76
2022/04/30 08:35:48;;;;;;;15.68;4.13;;;18.70;82.60;;;;;;5007729;28;20049;-79
2022/04/30 08:38:15;;;;;;;15.52;4.20;;;18.80;82.00;;;;;;5006378;28;20076;-72
2022/04/30 08:40:44;;;;;;;18.42;3.50;;;18.80;81.20;;;;;;5008802;28;20049;-74
2022/04/30 08:43:13;;;;;;;11.23;3.78;;;18.90;78.70;;;;;;5006674;28;20025;-75
2022/04/30 08:45:42;;;;;;;18.02;5.10;;;18.90;77.80;;;;;;4991048;28;20112;-77
2022/04/30 08:48:10;;;;;;;14.88;3.72;;;19.00;78.00;;;;;;5007567;28;20384;-74
2022/04/30 08:50:38;;;;;;;20.33;4.57;;;19.00;78.20;;;;;;5005189;28;20030;-77
2022/04/30 08:53:05;;;;;;;10.70;3.88;;;19.10;78.40;;;;;;5007797;28;20017;-75
2022/04/30 08:55:32;;;;;;;12.85;3.00;;;19.20;77.90;;;;;;5006720;28;20018;-72
2022/04/30 08:57:58;;;;;;;10.32;4.50;;;19.20;77.00;;;;;;5007726;28;20738;-74
2022/04/30 09:00:25;;;;;;;7.63;3.13;;;19.30;76.50;;;;;;5006812;28;20038;-76
2022/04/30 09:02:54;;;;;;;12.68;3.92;;;19.30;76.10;;;;;;5007549;28;20100;-71
2022/04/30 09:05:21;;;;;;;22.17;5.47;;;19.40;76.10;;;;;;5006526;28;20032;-75
2022/04/30 09:07:55;;;;;;;13.40;4.57;;;19.50;75.60;;;;;;5007266;28;20941;-75
2022/04/30 09:10:30;;;;;;;13.40;4.63;;;19.50;75.90;;;;;;5007963;28;20026;-75
2022/04/30 09:13:06;;;;;;;12.32;4.63;;;19.60;75.20;;;;;;5006353;28;20060;-75
2022/04/30 09:15:34;;;;;;;14.90;4.60;;;19.60;75.00;;;;;;5007463;28;20566;-75
2022/04/30 09:18:03;;;;;;;10.25;4.80;;;19.70;74.70;;;;;;5006728;28;20091;-76
2022/04/30 09:20:32;;;;;;;11.35;4.10;;;19.70;74.20;;;;;;5006831;28;20536;-77
2022/04/30 09:23:01;;;;;;;15.25;3.78;;;19.80;74.00;;;;;;5006971;28;20030;-74
2022/04/30 09:25:28;;;;;;;10.70;3.33;;;19.80;72.80;;;;;;5006402;28;20026;-75
2022/04/30 09:27:54;;;;;;;10.20;3.03;;;19.90;72.30;;;;;;5006609;28;20015;-73
2022/04/30 09:30:29;;;;;;;18.10;3.03;;;19.90;71.90;;;;;;5006296;28;20440;-73
2022/04/30 09:33:04;;;;;;;10.23;2.85;;;20.00;70.70;;;;;;5006969;28;20488;-72
2022/04/30 09:38:18;;;;;;;11.23;3.03;;;20.10;68.90;;;;;;5004325;28;20091;-70
2022/04/30 09:40:56;;;;;;;9.65;2.85;;;20.20;68.00;;;;;;5007599;28;20018;-73
2022/04/30 09:43:34;;;;;;;12.90;3.88;;;20.20;68.40;;;;;;5006540;28;20014;-73
2022/04/30 09:46:03;;;;;;;9.00;2.67;;;20.30;69.20;;;;;;5007543;28;20088;-73
2022/04/30 09:54:05;;;;;;;8.77;3.00;;;20.40;70.90;;;;;;5008042;28;20103;-77
2022/04/30 09:56:44;;;;;;;5.93;2.70;;;20.50;69.90;;;;;;5006147;28;20635;-78
2022/04/30 09:59:15;;;;;;;10.18;3.25;;;20.50;69.10;;;;;;5006248;28;20029;-78
2022/04/30 10:01:48;;;;;;;14.88;3.25;;;20.60;67.90;;;;;;5006579;28;20021;-77
2022/04/30 10:04:16;;;;;;;23.52;13.02;;;20.60;68.20;;;;;;5005756;28;20101;-75
2022/04/30 10:06:51;;;;;;;11.13;6.97;;;20.70;67.70;;;;;;5007629;28;20018;-76
2022/04/30 10:09:28;;;;;;;10.75;2.90;;;20.70;67.30;;;;;;5006050;28;20029;-73
2022/04/30 10:12:14;;;;;;;10.82;3.47;;;20.80;67.00;;;;;;5007050;28;20470;-77
2022/04/30 10:15:04;;;;;;;8.48;2.85;;;20.80;66.10;;;;;;5005935;28;20080;-73
2022/04/30 10:17:34;;;;;;;7.20;2.78;;;20.90;66.30;;;;;;5009686;28;20041;-75
2022/04/30 10:20:13;;;;;;;5.97;2.40;;;21.00;66.30;;;;;;5010891;28;20038;-74
2022/04/30 10:22:53;;;;;;;12.52;3.60;;;21.00;64.80;;;;;;5007487;28;20026;-74
2022/04/30 10:25:47;;;;;;;11.20;3.08;;;21.10;65.50;;;;;;5010741;28;20033;-76
2022/04/30 10:28:34;;;;;;;11.88;3.53;;;21.10;65.00;;;;;;5009602;28;20037;-69
2022/04/30 10:31:15;;;;;;;15.77;5.47;;;21.10;64.90;;;;;;5008603;28;20014;-73
2022/04/30 10:33:51;;;;;;;14.38;3.60;;;21.10;65.20;;;;;;5008971;28;20037;-72
2022/04/30 10:36:20;;;;;;;12.48;3.00;;;21.10;65.30;;;;;;5008190;28;20413;-74
2022/04/30 10:39:04;;;;;;;13.43;2.83;;;21.20;65.90;;;;;;5008474;28;20018;-73
2022/04/30 10:41:42;;;;;;;11.85;3.35;;;21.20;65.70;;;;;;4991201;28;20029;-71
2022/04/30 10:44:15;;;;;;;12.07;2.58;;;21.20;65.90;;;;;;5023055;28;20053;-70
2022/04/30 10:46:45;;;;;;;13.93;3.60;;;21.20;66.00;;;;;;5007235;28;20022;-74
2022/04/30 10:49:12;;;;;;;13.27;3.25;;;21.20;66.10;;;;;;5003953;28;20022;-74
2022/04/30 10:51:45;;;;;;;6.60;2.53;;;21.20;65.70;;;;;;5008818;28;20018;-71
2022/04/30 10:54:18;;;;;;;11.70;2.83;;;21.30;65.90;;;;;;4988966;28;20036;-74
2022/04/30 10:56:46;;;;;;;11.05;3.13;;;21.40;65.40;;;;;;5007562;28;20029;-74
2022/04/30 10:59:22;;;;;;;15.30;3.03;;;21.40;65.40;;;;;;4991467;28;20053;-73
2022/04/30 11:01:50;;;;;;;19.52;4.13;;;21.40;63.80;;;;;;5006726;28;20077;-72
2022/04/30 11:04:20;;;;;;;16.48;4.45;;;21.50;63.30;;;;;;5007337;28;20022;-70
2022/04/30 11:06:52;;;;;;;10.30;2.75;;;21.60;63.40;;;;;;5007070;28;20041;-82
2022/04/30 11:09:20;;;;;;;11.40;5.05;;;21.60;62.50;;;;;;5009916;28;20045;-69
2022/04/30 11:11:49;;;;;;;6.57;2.47;;;21.60;63.30;;;;;;5007328;28;20022;-70
2022/04/30 11:14:17;;;;;;;12.68;3.00;;;21.60;63.80;;;;;;5009546;28;20474;-67
2022/04/30 11:16:49;;;;;;;13.93;3.20;;;21.60;63.70;;;;;;5007549;28;20117;-69
2022/04/30 11:19:19;;;;;;;7.90;2.28;;;21.60;63.60;;;;;;5008441;28;20498;-68
2022/04/30 11:21:53;;;;;;;8.10;3.38;;;21.60;63.40;;;;;;5008056;28;20061;-69
2022/04/30 11:24:28;;;;;;;11.35;3.13;;;21.70;63.20;;;;;;5008420;28;20084;-69
2022/04/30 11:27:03;;;;;;;15.60;3.63;;;21.70;62.90;;;;;;5008437;28;20034;-69
2022/04/30 11:29:37;;;;;;;13.70;2.72;;;21.70;62.10;;;;;;5008582;28;20452;-70
2022/04/30 11:32:05;;;;;;;8.43;2.60;;;21.70;61.80;;;;;;5009233;28;20665;-71
2022/04/30 11:34:31;;;;;;;13.10;6.45;;;21.70;63.20;;;;;;5009348;28;20400;-69
2022/04/30 11:36:59;;;;;;;11.75;4.00;;;21.70;63.20;;;;;;5007541;28;20037;-68
2022/04/30 11:39:28;;;;;;;10.98;3.33;;;21.80;63.20;;;;;;5008225;28;20116;-67
2022/04/30 11:41:56;;;;;;;36.40;3.30;;;21.80;63.50;;;;;;5008586;28;20968;-69
2022/04/30 11:44:24;;;;;;;10.15;3.03;;;21.80;63.60;;;;;;5008597;28;20061;-70
2022/04/30 11:46:52;;;;;;;11.60;3.40;;;21.80;62.70;;;;;;5006699;28;20469;-68
2022/04/30 11:49:24;;;;;;;10.05;3.67;;;21.80;63.20;;;;;;5008613;28;20058;-69
2022/04/30 11:51:52;;;;;;;15.57;3.65;;;21.90;62.70;;;;;;5008592;28;20026;-67
2022/04/30 11:54:23;;;;;;;7.43;2.70;;;21.90;62.10;;;;;;5007364;28;20014;-71
2022/04/30 11:56:51;;;;;;;9.88;3.05;;;22.00;62.30;;;;;;5008809;28;20030;-72
2022/04/30 11:59:29;;;;;;;8.50;2.45;;;22.00;62.20;;;;;;5007373;28;20628;-68
2022/04/30 12:01:59;;;;;;;11.13;3.45;;;22.00;62.70;;;;;;5008754;28;20018;-70
2022/04/30 12:04:25;;;;;;;33.40;6.43;;;22.00;62.50;;;;;;5007073;28;20029;-70
2022/04/30 12:07:00;;;;;;;67.30;54.33;;;22.00;63.00;;;;;;5008481;28;20068;-70
2022/04/30 12:09:30;;;;;;;39.40;19.85;;;22.00;63.20;;;;;;5008313;28;20054;-72
2022/04/30 12:11:57;;;;;;;23.58;6.45;;;22.10;64.00;;;;;;5008521;28;20416;-72
2022/04/30 12:14:42;;;;;;;30.23;4.60;;;22.10;63.40;;;;;;5008579;28;20089;-72
2022/04/30 12:17:11;;;;;;;11.52;2.80;;;22.20;63.10;;;;;;4990443;28;20506;-64
2022/04/30 12:25:29;;;;;;;15.73;2.88;;;22.10;63.10;;;;;;5007235;28;20041;-75
2022/04/30 12:27:59;;;;;;;9.05;2.67;;;22.10;63.50;;;;;;5008490;28;20018;-70
2022/04/30 12:30:28;;;;;;;14.30;4.15;;;22.10;63.80;;;;;;4989680;28;20524;-71
2022/04/30 12:32:59;;;;;;;10.23;3.38;;;22.00;63.80;;;;;;5008067;28;20030;-70
2022/04/30 12:35:26;;;;;;;12.95;2.78;;;22.00;63.80;;;;;;5004860;28;20036;-72
2022/04/30 12:38:30;;;;;;;14.32;3.35;;;22.00;63.60;;;;;;5003584;28;20033;-71
2022/04/30 12:40:59;;;;;;;16.17;3.30;;;21.90;63.70;;;;;;5006633;28;20050;-66
2022/04/30 12:43:31;;;;;;;15.18;2.65;;;22.00;64.30;;;;;;5003804;28;20389;-70
2022/04/30 12:45:57;;;;;;;8.85;2.70;;;21.90;64.40;;;;;;5004854;28;20519;-71
2022/04/30 12:48:24;;;;;;;13.60;3.42;;;21.90;64.30;;;;;;5006814;28;20016;-67
2022/04/30 12:50:50;;;;;;;22.38;9.35;;;21.90;64.00;;;;;;5006665;28;20025;-68
2022/04/30 12:53:17;;;;;;;16.67;7.35;;;21.90;64.00;;;;;;5006929;28;20030;-69
2022/04/30 12:55:44;;;;;;;12.25;5.90;;;21.90;64.10;;;;;;5005434;28;20022;-69
2022/04/30 12:58:11;;;;;;;16.77;5.50;;;21.80;64.10;;;;;;5005601;28;21223;-67
2022/04/30 13:00:38;;;;;;;13.25;4.50;;;21.80;63.00;;;;;;5006417;28;20017;-68
2022/04/30 13:03:05;;;;;;;14.57;5.43;;;21.70;63.70;;;;;;5006894;28;20024;-73
2022/04/30 13:05:31;;;;;;;12.80;6.18;;;21.70;64.30;;;;;;5007497;28;20114;-68
2022/04/30 13:07:58;;;;;;;12.32;4.72;;;21.70;64.60;;;;;;5006315;28;20043;-67
2022/04/30 13:13:32;;;;;;;12.63;3.65;;;21.70;64.70;;;;;;4963608;28;20430;-71
2022/04/30 13:16:04;;;;;;;31.33;3.20;;;21.80;64.30;;;;;;5000044;28;20037;-72
2022/04/30 13:18:31;;;;;;;13.90;3.28;;;21.80;64.00;;;;;;5006138;28;20526;-68
2022/04/30 13:20:57;;;;;;;16.48;4.68;;;21.80;63.90;;;;;;5006488;28;20061;-69
2022/04/30 13:23:24;;;;;;;16.08;4.60;;;21.80;63.60;;;;;;5007487;28;20419;-70
2022/04/30 13:25:50;;;;;;;11.93;3.47;;;21.80;63.20;;;;;;5005794;28;20101;-70
2022/04/30 13:28:17;;;;;;;13.90;2.80;;;21.80;63.30;;;;;;5007358;28;20033;-71
2022/04/30 13:30:44;;;;;;;8.70;3.42;;;21.90;63.50;;;;;;5005759;28;20099;-72
2022/04/30 13:33:10;;;;;;;10.18;4.10;;;21.80;63.60;;;;;;4989161;28;20385;-69